Terminal Aerodrome Forecast
Issued by NWS Caribou, ME

Home | Current Version | Previous Version | Text Only | Print | Product List | Glossary On
Versions: 1 2 3 4 5 6 7 8 9 10 11 12 13 14 15 16 17
505
FTUS41 KCAR 180531
TAFCAR
TAF
KCAR 180531Z 1806/1906 VRB02KT P6SM FEW250
     FM181600 15005KT P6SM VCSH BKN070
     FM190000 16005KT 6SM -RA BR OVC050
     FM190300 15006KT 4SM -RA BR OVC015=

USA.gov is the U.S. government's official web portal to all federal, state and local government web resources and services.